Observation data for Tatum on 02/15/2017      Previous  Date  Next       Current Mesonet Observations  Soil Data  Daily Summary Page  Observations in Plain Language
KTAT 150600Z 30007KT M01/M03 A3023 RMK A01 T10141032  RH  088%=      5-min Rain = 0
KTAT 150605Z 30007KT M02/M03 A3023 RMK A01 T10151033  RH  089%=      5-min Rain = 0
KTAT 150610Z 30007KT M02/M03 A3023 RMK A01 T10151032  RH  089%=      5-min Rain = 0
KTAT 150615Z 30006KT M02/M03 A3023 RMK A01 T10151033  RH  088%=      5-min Rain = 0
KTAT 150620Z 30007KT M02/M03 A3023 RMK A01 T10161033  RH  089%=      5-min Rain = 0
KTAT 150625Z 31007KT M02/M03 A3023 RMK A01 T10161034  RH  089%=      5-min Rain = 0
KTAT 150630Z 31007KT M02/M04 A3023 RMK A01 T10171035  RH  089%=      5-min Rain = 0
KTAT 150635Z 30007KT M02/M04 A3023 RMK A01 T10171035  RH  089%=      5-min Rain = 0
KTAT 150640Z 30007KT M02/M04 A3023 RMK A01 T10191036  RH  089%=      5-min Rain = 0
KTAT 150645Z 29008KT M02/M04 A3023 RMK A01 T10191036  RH  089%=      5-min Rain = 0
KTAT 150650Z 29008KT M02/M04 A3023 RMK A01 T10191036  RH  089%=      5-min Rain = 0
KTAT 150655Z 29007KT M02/M04 A3023 RMK A01 T10201036  RH  090%=      5-min Rain = 0
KTAT 150700Z 29007KT M02/M04 A3024 RMK A01 T10201036  RH  090%=      5-min Rain = 0
KTAT 150705Z 29007KT M02/M04 A3024 RMK A01 T10191035  RH  089%=      5-min Rain = 0
KTAT 150710Z 28007KT M02/M04 A3024 RMK A01 T10191036  RH  089%=      5-min Rain = 0
KTAT 150715Z 28007KT M02/M04 A3024 RMK A01 T10191037  RH  089%=      5-min Rain = 0
KTAT 150720Z 28007KT M02/M04 A3024 RMK A01 T10201037  RH  089%=      5-min Rain = 0
KTAT 150725Z 27006KT M02/M04 A3024 RMK A01 T10201038  RH  089%=      5-min Rain = 0
KTAT 150730Z 27007KT M02/M04 A3024 RMK A01 T10201037  RH  089%=      5-min Rain = 0
KTAT 150735Z 28007KT M02/M04 A3024 RMK A01 T10191037  RH  089%=      5-min Rain = 0
KTAT 150740Z 29008KT M02/M04 A3024 RMK A01 T10181037  RH  088%=      5-min Rain = 0
KTAT 150745Z 29008KT M02/M04 A3024 RMK A01 T10161036  RH  087%=      5-min Rain = 0
KTAT 150750Z 30008KT M01/M04 A3024 RMK A01 T10141036  RH  086%=      5-min Rain = 0
KTAT 150755Z 30009KT M01/M04 A3024 RMK A01 T10131037  RH  085%=      5-min Rain = 0
KTAT 150800Z 30009KT M01/M04 A3024 RMK A01 T10121037  RH  085%=      5-min Rain = 0
KTAT 150805Z 30009KT M01/M04 A3024 RMK A01 T10111037  RH  084%=      5-min Rain = 0
KTAT 150810Z 31010KT M01/M04 A3023 RMK A01 T10111037  RH  083%=      5-min Rain = 0
KTAT 150815Z 31009KT M01/M04 A3023 RMK A01 T10121038  RH  083%=      5-min Rain = 0
KTAT 150820Z 31010KT M01/M04 A3023 RMK A01 T10121037  RH  084%=      5-min Rain = 0
KTAT 150825Z 31009KT M01/M04 A3023 RMK A01 T10121037  RH  084%=      5-min Rain = 0
KTAT 150830Z 31009KT M01/M04 A3023 RMK A01 T10131037  RH  084%=      5-min Rain = 0
KTAT 150835Z 31009KT M01/M04 A3023 RMK A01 T10131037  RH  085%=      5-min Rain = 0
KTAT 150840Z 31008KT M01/M04 A3023 RMK A01 T10141037  RH  085%=      5-min Rain = 0
KTAT 150845Z 31008KT M01/M04 A3023 RMK A01 T10141037  RH  086%=      5-min Rain = 0
KTAT 150850Z 31009KT M01/M04 A3023 RMK A01 T10131036  RH  085%=      5-min Rain = 0
KTAT 150855Z 31009KT M01/M04 A3023 RMK A01 T10121036  RH  085%=      5-min Rain = 0
KTAT 150900Z 30009KT M01/M04 A3023 RMK A01 T10131037  RH  085%=      5-min Rain = 0
KTAT 150905Z 30009KT M01/M04 A3023 RMK A01 T10141038  RH  085%=      5-min Rain = 0
KTAT 150910Z 30008KT M01/M04 A3023 RMK A01 T10141038  RH  085%=      5-min Rain = 0
KTAT 150915Z 29008KT M02/M04 A3023 RMK A01 T10151039  RH  085%=      5-min Rain = 0
KTAT 150920Z 29008KT M02/M04 A3023 RMK A01 T10161038  RH  086%=      5-min Rain = 0
KTAT 150925Z 29008KT M02/M04 A3023 RMK A01 T10161037  RH  087%=      5-min Rain = 0
KTAT 150930Z 29008KT M02/M04 A3023 RMK A01 T10171037  RH  087%=      5-min Rain = 0
KTAT 150935Z 28008KT M02/M04 A3023 RMK A01 T10181038  RH  087%=      5-min Rain = 0
KTAT 150940Z 29008KT M02/M04 A3023 RMK A01 T10201039  RH  088%=      5-min Rain = 0
KTAT 150945Z 29008KT M02/M04 A3023 RMK A01 T10201039  RH  088%=      5-min Rain = 0
KTAT 150950Z 29008KT M02/M04 A3023 RMK A01 T10191037  RH  089%=      5-min Rain = 0
KTAT 150955Z 29008KT M02/M04 A3023 RMK A01 T10191037  RH  089%=      5-min Rain = 0
KTAT 151000Z 29008KT M02/M04 A3023 RMK A01 T10191037  RH  089%=      5-min Rain = 0
KTAT 151005Z 29008KT M02/M04 A3023 RMK A01 T10181036  RH  089%=      5-min Rain = 0
KTAT 151010Z 29008KT M02/M04 A3023 RMK A01 T10181035  RH  089%=      5-min Rain = 0
KTAT 151015Z 29008KT M02/M03 A3023 RMK A01 T10171034  RH  089%=      5-min Rain = 0
KTAT 151020Z 29008KT M02/M03 A3023 RMK A01 T10161033  RH  090%=      5-min Rain = 0
KTAT 151025Z 29008KT M02/M03 A3023 RMK A01 T10161032  RH  090%=      5-min Rain = 0
KTAT 151030Z 30008KT M02/M03 A3024 RMK A01 T10151032  RH  089%=      5-min Rain = 0
KTAT 151035Z 29009KT M01/M03 A3024 RMK A01 T10141031  RH  089%=      5-min Rain = 0
KTAT 151040Z 30009KT M01/M03 A3024 RMK A01 T10131031  RH  089%=      5-min Rain = 0
KTAT 151045Z 29010KT M01/M03 A3024 RMK A01 T10131030  RH  089%=      5-min Rain = 0
KTAT 151050Z 30008KT M01/M03 A3024 RMK A01 T10131031  RH  089%=      5-min Rain = 0
KTAT 151055Z 31007KT M01/M03 A3024 RMK A01 T10141032  RH  089%=      5-min Rain = 0
KTAT 151100Z 30008KT M02/M03 A3024 RMK A01 T10161033  RH  089%=      5-min Rain = 0
KTAT 151105Z 30009KT M02/M03 A3024 RMK A01 T10161032  RH  089%=      5-min Rain = 0
KTAT 151110Z 30009KT M02/M03 A3024 RMK A01 T10161033  RH  089%=      5-min Rain = 0
KTAT 151115Z 29008KT M02/M03 A3024 RMK A01 T10161034  RH  089%=      5-min Rain = 0
KTAT 151120Z 29008KT M02/M03 A3024 RMK A01 T10171034  RH  089%=      5-min Rain = 0
KTAT 151125Z 29008KT M02/M03 A3024 RMK A01 T10171034  RH  089%=      5-min Rain = 0
KTAT 151130Z 29008KT M02/M04 A3024 RMK A01 T10171035  RH  089%=      5-min Rain = 0
KTAT 151135Z 29007KT M02/M04 A3024 RMK A01 T10181035  RH  089%=      5-min Rain = 0
KTAT 151140Z 29007KT M02/M04 A3024 RMK A01 T10191036  RH  089%=      5-min Rain = 0
KTAT 151145Z 29007KT M02/M04 A3024 RMK A01 T10191036  RH  089%=      5-min Rain = 0
KTAT 151150Z 29007KT M02/M04 A3024 RMK A01 T10201037  RH  089%=      5-min Rain = 0
KTAT 151155Z 29008KT M02/M04 A3024 RMK A01 T10201037  RH  089%=      5-min Rain = 0
KTAT 151200Z 29008KT M02/M04 A3024 RMK A01 T10201037  RH  089%=      5-min Rain = 0
KTAT 151205Z 29008KT M02/M04 A3024 RMK A01 T10201037  RH  089%=      5-min Rain = 0
KTAT 151210Z 29008KT M02/M04 A3024 RMK A01 T10201038  RH  088%=      5-min Rain = 0
KTAT 151215Z 30008KT M02/M04 A3024 RMK A01 T10201039  RH  088%=      5-min Rain = 0
KTAT 151220Z 30008KT M02/M04 A3024 RMK A01 T10201039  RH  088%=      5-min Rain = 0
KTAT 151225Z 30008KT M02/M04 A3024 RMK A01 T10211040  RH  088%=      5-min Rain = 0
KTAT 151230Z 30008KT M02/M04 A3024 RMK A01 T10221041  RH  088%=      5-min Rain = 0
KTAT 151235Z 30008KT M02/M04 A3024 RMK A01 T10221042  RH  088%=      5-min Rain = 0
KTAT 151240Z 30008KT M02/M04 A3024 RMK A01 T10241042  RH  088%=      5-min Rain = 0
KTAT 151245Z 30008KT M02/M04 A3024 RMK A01 T10241043  RH  088%=      5-min Rain = 0
KTAT 151250Z 30009KT M03/M04 A3024 RMK A01 T10251043  RH  088%=      5-min Rain = 0
KTAT 151255Z 30008KT M03/M04 A3024 RMK A01 T10251044  RH  088%=      5-min Rain = 0
KTAT 151300Z 30008KT M03/M04 A3024 RMK A01 T10251044  RH  088%=      5-min Rain = 0
KTAT 151305Z 30008KT M03/M05 A3024 RMK A01 T10251045  RH  088%=      5-min Rain = 0
KTAT 151310Z 30008KT M03/M05 A3024 RMK A01 T10261045  RH  087%=      5-min Rain = 0
KTAT 151315Z 30008KT M03/M05 A3024 RMK A01 T10261046  RH  087%=      5-min Rain = 0
KTAT 151320Z 30007KT M03/M05 A3025 RMK A01 T10271046  RH  087%=      5-min Rain = 0
KTAT 151325Z 31007KT M03/M05 A3025 RMK A01 T10281047  RH  088%=      5-min Rain = 0
KTAT 151330Z 31007KT M03/M05 A3025 RMK A01 T10291048  RH  088%=      5-min Rain = 0
KTAT 151335Z 31007KT M03/M05 A3025 RMK A01 T10301049  RH  088%=      5-min Rain = 0
KTAT 151340Z 31007KT M03/M05 A3025 RMK A01 T10301048  RH  088%=      5-min Rain = 0
KTAT 151345Z 31007KT M03/M05 A3026 RMK A01 T10281046  RH  088%=      5-min Rain = 0
KTAT 151350Z 31008KT M02/M04 A3026 RMK A01 T10241044  RH  087%=      5-min Rain = 0
KTAT 151355Z 31008KT M02/M04 A3026 RMK A01 T10211043  RH  086%=      5-min Rain = 0
KTAT 151400Z 31008KT M02/M04 A3026 RMK A01 T10181042  RH  085%=      5-min Rain = 0
KTAT 151405Z 31008KT M02/M04 A3026 RMK A01 T10151041  RH  083%=      5-min Rain = 0
KTAT 151410Z 31008KT M01/M04 A3026 RMK A01 T10121039  RH  082%=      5-min Rain = 0
KTAT 151415Z 31008KT M01/M04 A3026 RMK A01 T10091038  RH  082%=      5-min Rain = 0
KTAT 151420Z 31008KT M01/M04 A3027 RMK A01 T10061037  RH  081%=      5-min Rain = 0
KTAT 151425Z 31008KT M00/M04 A3027 RMK A01 T10031035  RH  080%=      5-min Rain = 0
KTAT 151430Z 31007KT 00/03 A3027 RMK A01 T00000-34  RH  079%=      5-min Rain = 0
KTAT 151435Z 32007KT 00/M03 A3027 RMK A01 T00031032  RH  078%=      5-min Rain = 0
KTAT 151440Z 32007KT 01/M03 A3027 RMK A01 T00061031  RH  077%=      5-min Rain = 0
KTAT 151445Z 32007KT 01/M03 A3028 RMK A01 T00091029  RH  077%=      5-min Rain = 0
KTAT 151450Z 32007KT 01/M03 A3028 RMK A01 T00121027  RH  076%=      5-min Rain = 0
KTAT 151455Z 32006KT 02/M03 A3028 RMK A01 T00151025  RH  075%=      5-min Rain = 0
KTAT 151500Z 32006KT 02/M02 A3028 RMK A01 T00181022  RH  075%=      5-min Rain = 0
KTAT 151505Z 33007KT 02/M02 A3029 RMK A01 T00221023  RH  073%=      5-min Rain = 0
KTAT 151510Z 33008KT 03/M02 A3029 RMK A01 T00251024  RH  071%=      5-min Rain = 0
KTAT 151515Z 33007KT 03/M02 A3029 RMK A01 T00291023  RH  069%=      5-min Rain = 0
KTAT 151520Z 33007KT 03/M02 A3029 RMK A01 T00341023  RH  067%=      5-min Rain = 0
KTAT 151525Z 34006KT 04/M02 A3029 RMK A01 T00401021  RH  065%=      5-min Rain = 0
KTAT 151530Z 34007KT 05/M03 A3029 RMK A01 T00471025  RH  060%=      5-min Rain = 0
KTAT 151535Z 35008KT 05/M03 A3029 RMK A01 T00511025  RH  058%=      5-min Rain = 0
KTAT 151540Z 35008KT 05/M03 A3029 RMK A01 T00541027  RH  057%=      5-min Rain = 0
KTAT 151545Z 36008KT 06/M03 A3029 RMK A01 T00571026  RH  056%=      5-min Rain = 0
KTAT 151550Z 36008KT 06/M03 A3029 RMK A01 T00601025  RH  055%=      5-min Rain = 0
KTAT 151555Z 35008KT 06/M03 A3029 RMK A01 T00631026  RH  054%=      5-min Rain = 0
KTAT 151600Z 35008KT 06/M03 A3029 RMK A01 T00641026  RH  053%=      5-min Rain = 0
KTAT 151605Z 35009KT 07/M03 A3029 RMK A01 T00671029  RH  051%=      5-min Rain = 0
KTAT 151610Z 36008KT 07/M03 A3029 RMK A01 T00691032  RH  049%=      5-min Rain = 0
KTAT 151615Z 36008KT 07/M03 A3029 RMK A01 T00731032  RH  048%=      5-min Rain = 0
KTAT 151620Z 35008KT 08/M03 A3029 RMK A01 T00751032  RH  047%=      5-min Rain = 0
KTAT 151625Z 35007KT 08/M03 A3029 RMK A01 T00761034  RH  046%=      5-min Rain = 0
KTAT 151630Z 34007KT 08/M03 A3029 RMK A01 T00791034  RH  045%=      5-min Rain = 0
KTAT 151635Z 35007KT 08/M03 A3029 RMK A01 T00801034  RH  045%=      5-min Rain = 0
KTAT 151640Z 35007KT 08/M04 A3029 RMK A01 T00821037  RH  043%=      5-min Rain = 0
KTAT 151645Z 36007KT 08/M04 A3029 RMK A01 T00821040  RH  042%=      5-min Rain = 0
KTAT 151650Z 36006KT 09/M04 A3029 RMK A01 T00851039  RH  042%=      5-min Rain = 0
KTAT 151655Z 34007KT 09/M04 A3029 RMK A01 T00851043  RH  040%=      5-min Rain = 0
KTAT 151700Z 35007KT 09/M04 A3029 RMK A01 T00881041  RH  040%=      5-min Rain = 0
KTAT 151705Z 35006KT 09/M05 A3029 RMK A01 T00901049  RH  038%=      5-min Rain = 0
KTAT 151710Z 35006KT 09/M05 A3029 RMK A01 T00921050  RH  037%=      5-min Rain = 0
KTAT 151715Z 34005KT 09/M05 A3029 RMK A01 T00941049  RH  036%=      5-min Rain = 0
KTAT 151720Z 35005KT 09/M06 A3029 RMK A01 T00931056  RH  035%=      5-min Rain = 0
KTAT 151725Z 34006KT 09/M06 A3028 RMK A01 T00931055  RH  035%=      5-min Rain = 0
KTAT 151730Z 34005KT 10/M05 A3028 RMK A01 T00971054  RH  035%=      5-min Rain = 0
KTAT 151735Z 01005KT 10/M06 A3028 RMK A01 T00951061  RH  033%=      5-min Rain = 0
KTAT 151740Z 02005G11KT 10/M06 A3028 RMK A01 T00981058  RH  033%=      5-min Rain = 0
KTAT 151745Z 01006KT 10/M06 A3028 RMK A01 T01001060  RH  032%=      5-min Rain = 0
KTAT 151750Z 02006KT 10/M06 A3028 RMK A01 T00981060  RH  032%=      5-min Rain = 0
KTAT 151755Z 01004KT 10/M06 A3028 RMK A01 T01021057  RH  033%=      5-min Rain = 0
KTAT 151800Z 00005KT 10/M06 A3027 RMK A01 T01031061  RH  031%=      5-min Rain = 0
KTAT 151805Z 35006KT 10/M06 A3027 RMK A01 T01041055  RH  033%=      5-min Rain = 0
KTAT 151810Z 03006KT 10/M06 A3027 RMK A01 T01041057  RH  032%=      5-min Rain = 0
KTAT 151815Z 02006KT 11/M06 A3027 RMK A01 T01081056  RH  031%=      5-min Rain = 0
KTAT 151820Z 31006KT 10/M06 A3027 RMK A01 T01041059  RH  031%=      5-min Rain = 0
KTAT 151825Z 34006KT 10/M06 A3026 RMK A01 T01041056  RH  032%=      5-min Rain = 0
KTAT 151830Z 01005G10KT 11/M05 A3026 RMK A01 T01101054  RH  032%=      5-min Rain = 0
KTAT 151835Z 04005KT 11/M06 A3026 RMK A01 T01091058  RH  031%=      5-min Rain = 0
KTAT 151840Z 03005G11KT 11/M06 A3026 RMK A01 T01091061  RH  030%=      5-min Rain = 0
KTAT 151845Z 01006G11KT 11/M06 A3026 RMK A01 T01091057  RH  031%=      5-min Rain = 0
KTAT 151850Z 35009G15KT 11/M05 A3026 RMK A01 T01131049  RH  032%=      5-min Rain = 0
KTAT 151855Z 33006KT 11/M06 A3026 RMK A01 T01081060  RH  031%=      5-min Rain = 0
KTAT 151900Z 31004KT 11/M06 A3025 RMK A01 T01071060  RH  031%=      5-min Rain = 0
KTAT 151905Z 35005KT 11/M06 A3025 RMK A01 T01071060  RH  031%=      5-min Rain = 0
KTAT 151910Z 13003KT 11/M06 A3025 RMK A01 T01131059  RH  030%=      5-min Rain = 0
KTAT 151915Z 02004G11KT 12/M06 A3024 RMK A01 T01221056  RH  029%=      5-min Rain = 0
KTAT 151920Z 02006KT 12/M06 A3024 RMK A01 T01151062  RH  029%=      5-min Rain = 0
KTAT 151925Z 03005KT 11/M06 A3024 RMK A01 T01121062  RH  029%=      5-min Rain = 0
KTAT 151930Z 06003G8KT 12/M06 A3024 RMK A01 T01181057  RH  029%=      5-min Rain = 0
KTAT 151935Z 03005KT 12/M06 A3023 RMK A01 T01171060  RH  029%=      5-min Rain = 0
KTAT 151940Z 01005KT 12/M05 A3023 RMK A01 T01201054  RH  030%=      5-min Rain = 0
KTAT 151945Z 35004G10KT 12/M06 A3023 RMK A01 T01181060  RH  029%=      5-min Rain = 0
KTAT 151950Z 33006G11KT 12/M06 A3022 RMK A01 T01161057  RH  030%=      5-min Rain = 0
KTAT 151955Z 01007KT 12/M06 A3022 RMK A01 T01171060  RH  029%=      5-min Rain = 0
KTAT 152000Z 03005G10KT 12/M07 A3022 RMK A01 T01181066  RH  027%=      5-min Rain = 0
KTAT 152005Z 30005KT 12/M06 A3022 RMK A01 T01201060  RH  028%=      5-min Rain = 0
KTAT 152010Z 25002KT 12/M06 A3021 RMK A01 T01181058  RH  029%=      5-min Rain = 0
KTAT 152015Z 32003KT 13/M05 A3021 RMK A01 T01281053  RH  028%=      5-min Rain = 0
KTAT 152020Z 31003KT 13/M06 A3021 RMK A01 T01281055  RH  028%=      5-min Rain = 0
KTAT 152025Z 30004KT 12/M06 A3021 RMK A01 T01211059  RH  028%=      5-min Rain = 0
KTAT 152030Z 29005G10KT 12/M06 A3021 RMK A01 T01201058  RH  029%=      5-min Rain = 0
KTAT 152035Z 33008KT 12/M06 A302 RMK A01 T01211060  RH  028%=      5-min Rain = 0
KTAT 152040Z 31005KT 12/M06 A302 RMK A01 T01211061  RH  028%=      5-min Rain = 0
KTAT 152045Z 27004KT 12/M06 A302 RMK A01 T01231059  RH  028%=      5-min Rain = 0
KTAT 152050Z 33002KT 12/M06 A302 RMK A01 T01241062  RH  027%=      5-min Rain = 0
KTAT 152055Z 01004KT 12/M06 A302 RMK A01 T01241063  RH  027%=      5-min Rain = 0
KTAT 152100Z 30005KT 13/M06 A3019 RMK A01 T01261055  RH  028%=      5-min Rain = 0
KTAT 152105Z 32008KT 13/M06 A3019 RMK A01 T01271056  RH  028%=      5-min Rain = 0
KTAT 152110Z 30009KT 12/M06 A3019 RMK A01 T01231061  RH  027%=      5-min Rain = 0
KTAT 152115Z 33007KT 12/M06 A3019 RMK A01 T01231061  RH  027%=      5-min Rain = 0
KTAT 152120Z 34006KT 12/M06 A3019 RMK A01 T01241058  RH  028%=      5-min Rain = 0
KTAT 152125Z 35004KT 12/M06 A3019 RMK A01 T01241062  RH  027%=      5-min Rain = 0
KTAT 152130Z 29003KT 13/M06 A3018 RMK A01 T01271062  RH  026%=      5-min Rain = 0
KTAT 152135Z 28005KT 13/M06 A3018 RMK A01 T01281062  RH  026%=      5-min Rain = 0
KTAT 152140Z 28004KT 13/M06 A3018 RMK A01 T01251063  RH  027%=      5-min Rain = 0
KTAT 152145Z 31003KT 13/M06 A3018 RMK A01 T01281063  RH  026%=      5-min Rain = 0
KTAT 152150Z 30005KT 13/M06 A3018 RMK A01 T01271061  RH  027%=      5-min Rain = 0
KTAT 152155Z 29003KT 13/M07 A3018 RMK A01 T01261066  RH  026%=      5-min Rain = 0
KTAT 152200Z 22003KT 13/M06 A3017 RMK A01 T01291061  RH  026%=      5-min Rain = 0
KTAT 152205Z 28004G9KT 13/M06 A3017 RMK A01 T01321062  RH  026%=      5-min Rain = 0
KTAT 152210Z 29008KT 13/M06 A3017 RMK A01 T01291060  RH  027%=      5-min Rain = 0
KTAT 152215Z 25006KT 13/M06 A3017 RMK A01 T01271062  RH  027%=      5-min Rain = 0
KTAT 152220Z 28005KT 13/M07 A3017 RMK A01 T01281065  RH  026%=      5-min Rain = 0
KTAT 152225Z 26002KT 13/M06 A3017 RMK A01 T01311063  RH  026%=      5-min Rain = 0
KTAT 152230Z 00003KT 13/M07 A3016 RMK A01 T01301068  RH  025%=      5-min Rain = 0
KTAT 152235Z 01004KT 13/M07 A3016 RMK A01 T01251069  RH  025%=      5-min Rain = 0
KTAT 152240Z 31004KT 13/M06 A3016 RMK A01 T01261064  RH  026%=      5-min Rain = 0
KTAT 152245Z 31008KT 13/M06 A3016 RMK A01 T01301057  RH  027%=      5-min Rain = 0
KTAT 152250Z 31005KT 13/M06 A3016 RMK A01 T01271064  RH  026%=      5-min Rain = 0
KTAT 152255Z 33003KT 13/M06 A3016 RMK A01 T01291063  RH  026%=      5-min Rain = 0
KTAT 152300Z 30004G10KT 13/M06 A3016 RMK A01 T01311062  RH  026%=      5-min Rain = 0
KTAT 152305Z 30004KT 13/M06 A3015 RMK A01 T01271062  RH  027%=      5-min Rain = 0
KTAT 152310Z 26003KT 13/M06 A3015 RMK A01 T01281062  RH  026%=      5-min Rain = 0
KTAT 152315Z 27004KT 13/M06 A3015 RMK A01 T01311059  RH  027%=      5-min Rain = 0
KTAT 152320Z 28006KT 13/M06 A3015 RMK A01 T01281058  RH  027%=      5-min Rain = 0
KTAT 152325Z 27008KT 13/M06 A3015 RMK A01 T01271056  RH  028%=      5-min Rain = 0
KTAT 152330Z 28007KT 13/M05 A3015 RMK A01 T01261053  RH  029%=      5-min Rain = 0
KTAT 152335Z 27006KT 13/M06 A3015 RMK A01 T01251057  RH  028%=      5-min Rain = 0
KTAT 152340Z 27007KT 12/M06 A3015 RMK A01 T01241055  RH  029%=      5-min Rain = 0
KTAT 152345Z 28006KT 12/M06 A3015 RMK A01 T01221056  RH  029%=      5-min Rain = 0
KTAT 152350Z 28004KT 12/M05 A3015 RMK A01 T01231053  RH  029%=      5-min Rain = 0
KTAT 152355Z 29007KT 12/M06 A3015 RMK A01 T01211055  RH  029%=      5-min Rain = 0
KTAT 160000Z 29006KT 12/M05 A3015 RMK A01 T01191052  RH  030%=      5-min Rain = 0
KTAT 160005Z 29006KT 12/M06 A3015 RMK A01 T01171055  RH  030%=      5-min Rain = 0
KTAT 160010Z 28006KT 12/M06 A3015 RMK A01 T01161055  RH  030%=      5-min Rain = 0
KTAT 160015Z 29006KT 11/M05 A3015 RMK A01 T01141051  RH  031%=      5-min Rain = 0
KTAT 160020Z 29006KT 11/M05 A3015 RMK A01 T01101046  RH  034%=      5-min Rain = 0
KTAT 160025Z 29005KT 11/M04 A3015 RMK A01 T01051042  RH  036%=      5-min Rain = 0
KTAT 160030Z 28006KT 10/M04 A3014 RMK A01 T01001038  RH  038%=      5-min Rain = 0
KTAT 160035Z 28006KT 09/M04 A3014 RMK A01 T00941035  RH  040%=      5-min Rain = 0
KTAT 160040Z 28006KT 09/M03 A3014 RMK A01 T00861030  RH  044%=      5-min Rain = 0
KTAT 160045Z 27007KT 08/M03 A3015 RMK A01 T00751026  RH  049%=      5-min Rain = 0
KTAT 160050Z 27007KT 07/M03 A3015 RMK A01 T00671025  RH  053%=      5-min Rain = 0
KTAT 160055Z 27008KT 06/M02 A3015 RMK A01 T00641024  RH  054%=      5-min Rain = 0
KTAT 160100Z 27008KT 06/M02 A3015 RMK A01 T00601023  RH  056%=      5-min Rain = 0
KTAT 160105Z 27008KT 06/M02 A3015 RMK A01 T00581023  RH  057%=      5-min Rain = 0
KTAT 160110Z 27008KT 06/M02 A3015 RMK A01 T00551023  RH  058%=      5-min Rain = 0
KTAT 160115Z 26007KT 05/M02 A3015 RMK A01 T00511021  RH  060%=      5-min Rain = 0
KTAT 160120Z 26008KT 05/M02 A3015 RMK A01 T00481019  RH  063%=      5-min Rain = 0
KTAT 160125Z 26008KT 04/M02 A3015 RMK A01 T00441019  RH  064%=      5-min Rain = 0
KTAT 160130Z 27007KT 04/M02 A3015 RMK A01 T00421019  RH  065%=      5-min Rain = 0
KTAT 160135Z 26007KT 04/M02 A3015 RMK A01 T00411019  RH  066%=      5-min Rain = 0
KTAT 160140Z 26008KT 04/M02 A3015 RMK A01 T00401020  RH  066%=      5-min Rain = 0
KTAT 160145Z 26008KT 04/M02 A3015 RMK A01 T00401020  RH  065%=      5-min Rain = 0
KTAT 160150Z 26008KT 04/M02 A3015 RMK A01 T00401021  RH  065%=      5-min Rain = 0
KTAT 160155Z 26008KT 04/M02 A3015 RMK A01 T00391021  RH  066%=      5-min Rain = 0
KTAT 160200Z 26008KT 04/M02 A3015 RMK A01 T00381020  RH  066%=      5-min Rain = 0
KTAT 160205Z 26008KT 04/M02 A3015 RMK A01 T00371020  RH  067%=      5-min Rain = 0
KTAT 160210Z 26008KT 04/M02 A3015 RMK A01 T00351021  RH  068%=      5-min Rain = 0
KTAT 160215Z 26008KT 03/M02 A3015 RMK A01 T00341021  RH  068%=      5-min Rain = 0
KTAT 160220Z 26008KT 03/M02 A3015 RMK A01 T00331022  RH  068%=      5-min Rain = 0
KTAT 160225Z 26008KT 03/M02 A3015 RMK A01 T00311021  RH  069%=      5-min Rain = 0
KTAT 160230Z 25008KT 03/M02 A3016 RMK A01 T00271021  RH  071%=      5-min Rain = 0
KTAT 160235Z 25008KT 02/M02 A3015 RMK A01 T00241022  RH  073%=      5-min Rain = 0
KTAT 160240Z 25008KT 02/M02 A3015 RMK A01 T00211023  RH  073%=      5-min Rain = 0
KTAT 160245Z 25009KT 02/M02 A3015 RMK A01 T00231023  RH  073%=      5-min Rain = 0
KTAT 160250Z 25008KT 02/M02 A3015 RMK A01 T00241023  RH  072%=      5-min Rain = 0
KTAT 160255Z 25008KT 02/M02 A3015 RMK A01 T00241022  RH  072%=      5-min Rain = 0
KTAT 160300Z 25008KT 02/M02 A3016 RMK A01 T00241023  RH  072%=      5-min Rain = 0
KTAT 160305Z 25009KT 02/M02 A3016 RMK A01 T00231023  RH  072%=      5-min Rain = 0
KTAT 160310Z 25008KT 02/M02 A3016 RMK A01 T00221024  RH  072%=      5-min Rain = 0
KTAT 160315Z 25008KT 02/M02 A3016 RMK A01 T00211024  RH  073%=      5-min Rain = 0
KTAT 160320Z 25008KT 02/M03 A3016 RMK A01 T00191025  RH  073%=      5-min Rain = 0
KTAT 160325Z 25008KT 02/M03 A3016 RMK A01 T00171025  RH  074%=      5-min Rain = 0
KTAT 160330Z 25008KT 02/M03 A3016 RMK A01 T00161026  RH  074%=      5-min Rain = 0
KTAT 160335Z 25008KT 02/M03 A3016 RMK A01 T00161027  RH  074%=      5-min Rain = 0
KTAT 160340Z 25008KT 02/M03 A3016 RMK A01 T00151027  RH  074%=      5-min Rain = 0
KTAT 160345Z 25008KT 02/M03 A3015 RMK A01 T00151028  RH  074%=      5-min Rain = 0
KTAT 160350Z 25008KT 02/M03 A3015 RMK A01 T00151027  RH  074%=      5-min Rain = 0
KTAT 160355Z 26007KT 01/M03 A3015 RMK A01 T00141028  RH  075%=      5-min Rain = 0
KTAT 160400Z 26007KT 01/M03 A3015 RMK A01 T00121029  RH  075%=      5-min Rain = 0
KTAT 160405Z 25008KT 01/M03 A3015 RMK A01 T00111029  RH  076%=      5-min Rain = 0
KTAT 160410Z 25008KT 01/M03 A3016 RMK A01 T00131029  RH  074%=      5-min Rain = 0
KTAT 160415Z 26008KT 01/M03 A3016 RMK A01 T00131029  RH  075%=      5-min Rain = 0
KTAT 160420Z 26007KT 01/M03 A3016 RMK A01 T00101030  RH  076%=      5-min Rain = 0
KTAT 160425Z 25008KT 01/M03 A3016 RMK A01 T00091030  RH  076%=      5-min Rain = 0
KTAT 160430Z 26008KT 01/M03 A3015 RMK A01 T00091030  RH  076%=      5-min Rain = 0
KTAT 160435Z 25008KT 01/M03 A3015 RMK A01 T00101030  RH  076%=      5-min Rain = 0
KTAT 160440Z 25008KT 01/M03 A3015 RMK A01 T00101030  RH  075%=      5-min Rain = 0
KTAT 160445Z 25008KT 01/M03 A3015 RMK A01 T00101031  RH  075%=      5-min Rain = 0
KTAT 160450Z 25008KT 01/M03 A3015 RMK A01 T00091030  RH  076%=      5-min Rain = 0
KTAT 160455Z 25008KT 01/M03 A3015 RMK A01 T00071031  RH  077%=      5-min Rain = 0
KTAT 160500Z 25008KT 01/M03 A3015 RMK A01 T00061031  RH  077%=      5-min Rain = 0
KTAT 160505Z 25008KT 01/M03 A3015 RMK A01 T00071032  RH  076%=      5-min Rain = 0
KTAT 160510Z 25008KT 01/M03 A3015 RMK A01 T00061032  RH  076%=      5-min Rain = 0
KTAT 160515Z 25008KT 01/M03 A3015 RMK A01 T00051033  RH  077%=      5-min Rain = 0
KTAT 160520Z 25008KT 00/M03 A3015 RMK A01 T00021033  RH  078%=      5-min Rain = 0
KTAT 160525Z 25008KT M00/M03 A3015 RMK A01 T10011034  RH  079%=      5-min Rain = 0
KTAT 160530Z 25008KT M00/M03 A3015 RMK A01 T10021034  RH  080%=      5-min Rain = 0
KTAT 160535Z 25008KT M00/M03 A3015 RMK A01 T10011033  RH  080%=      5-min Rain = 0
KTAT 160540Z 25008KT 00/03 A3015 RMK A01 T00-00-34  RH  079%=      5-min Rain = 0
KTAT 160545Z 25009KT 00/M03 A3014 RMK A01 T00011034  RH  079%=      5-min Rain = 0
KTAT 160550Z 25009KT 00/M03 A3014 RMK A01 T00011034  RH  078%=      5-min Rain = 0
KTAT 160555Z 25008KT 00/04 A3014 RMK A01 T00000-35  RH  078%=      5-min Rain = 0

Page generated in 0.0224 seconds.